Main page
METAR-TAF:

METAR-TAF

Airports :

Hoonah Airport

Hoonah, Alaska, United States

latitude: 58-07N, longitude: 135-27W, elevation: 0 m

Current weather observation

The report was made 55 minutes ago, at 07:56 UTC
Calm wind
Temperature 3°C
Humidity 100%
Pressure 1022 hPa
Visibility: 16.1 km
Clear sky

METAR: PAOH 220756Z AUTO 00000KT 10SM CLR 03/03 A3018 RMK AO2 SLP219 T00330028 PNO $

Time: 00:51 (08:51 UTC)


TAF: missing

Weather observations and forecasts of more than 4000 airports (METAR and TAF reports).

The available stations are represented by yellow and red dots on the map.

Hover mouse over dot to see the name of the station.

Then click to see weather observations and forecasts.

To change the map : click on the green buttons with a black cross to zoom in, on the green button with a dash to zoom out, or on the green arrows for adjacent maps.


METAR-TAF: